sensor_id;sensor_type;location;lat;lon;timestamp;P1;durP1;ratioP1;P2;durP2;ratioP2
30307;SDS011;17114;52.314;8.910;2023-08-17T00:02:13;4.90;;;2.55;;
30307;SDS011;17114;52.314;8.910;2023-08-17T00:04:40;11.27;;;3.10;;
30307;SDS011;17114;52.314;8.910;2023-08-17T00:07:07;6.93;;;2.88;;
30307;SDS011;17114;52.314;8.910;2023-08-17T00:09:34;7.50;;;2.67;;
30307;SDS011;17114;52.314;8.910;2023-08-17T00:12:01;6.75;;;2.60;;
30307;SDS011;17114;52.314;8.910;2023-08-17T00:14:28;7.07;;;2.70;;
30307;SDS011;17114;52.314;8.910;2023-08-17T00:16:55;5.13;;;2.70;;
30307;SDS011;17114;52.314;8.910;2023-08-17T00:19:22;6.00;;;2.72;;
30307;SDS011;17114;52.314;8.910;2023-08-17T00:21:50;10.70;;;2.65;;
30307;SDS011;17114;52.314;8.910;2023-08-17T00:24:17;5.03;;;2.40;;
30307;SDS011;17114;52.314;8.910;2023-08-17T00:26:44;9.20;;;2.88;;
30307;SDS011;17114;52.314;8.910;2023-08-17T00:29:11;5.47;;;2.85;;
30307;SDS011;17114;52.314;8.910;2023-08-17T00:31:38;8.70;;;2.78;;
30307;SDS011;17114;52.314;8.910;2023-08-17T00:34:05;6.88;;;2.58;;
30307;SDS011;17114;52.314;8.910;2023-08-17T00:36:31;7.78;;;3.10;;
30307;SDS011;17114;52.314;8.910;2023-08-17T00:38:58;10.55;;;3.17;;
30307;SDS011;17114;52.314;8.910;2023-08-17T00:41:25;7.20;;;2.83;;
30307;SDS011;17114;52.314;8.910;2023-08-17T00:43:52;5.80;;;3.00;;
30307;SDS011;17114;52.314;8.910;2023-08-17T00:46:19;12.15;;;3.30;;
30307;SDS011;17114;52.314;8.910;2023-08-17T00:48:48;7.85;;;2.97;;
30307;SDS011;17114;52.314;8.910;2023-08-17T00:51:15;6.53;;;2.65;;
30307;SDS011;17114;52.314;8.910;2023-08-17T00:53:42;6.95;;;2.70;;
30307;SDS011;17114;52.314;8.910;2023-08-17T00:56:09;7.30;;;2.80;;
30307;SDS011;17114;52.314;8.910;2023-08-17T00:58:36;8.27;;;2.85;;
30307;SDS011;17114;52.314;8.910;2023-08-17T01:01:03;5.05;;;2.60;;
30307;SDS011;17114;52.314;8.910;2023-08-17T01:03:30;5.75;;;2.97;;
30307;SDS011;17114;52.314;8.910;2023-08-17T01:05:58;10.02;;;3.35;;
30307;SDS011;17114;52.314;8.910;2023-08-17T01:08:25;7.60;;;2.95;;
30307;SDS011;17114;52.314;8.910;2023-08-17T01:10:54;8.15;;;3.33;;
30307;SDS011;17114;52.314;8.910;2023-08-17T01:16:24;8.85;;;2.92;;
30307;SDS011;17114;52.314;8.910;2023-08-17T01:18:56;8.00;;;2.95;;
30307;SDS011;17114;52.314;8.910;2023-08-17T01:21:25;5.75;;;2.63;;
30307;SDS011;17114;52.314;8.910;2023-08-17T01:24:03;7.50;;;3.13;;
30307;SDS011;17114;52.314;8.910;2023-08-17T01:26:31;5.20;;;2.90;;
30307;SDS011;17114;52.314;8.910;2023-08-17T01:28:57;9.27;;;2.80;;
30307;SDS011;17114;52.314;8.910;2023-08-17T01:31:27;7.30;;;2.88;;
30307;SDS011;17114;52.314;8.910;2023-08-17T01:34:05;6.38;;;3.03;;
30307;SDS011;17114;52.314;8.910;2023-08-17T01:36:37;6.10;;;2.83;;
30307;SDS011;17114;52.314;8.910;2023-08-17T01:39:08;8.73;;;3.28;;
30307;SDS011;17114;52.314;8.910;2023-08-17T01:41:37;5.72;;;2.90;;
30307;SDS011;17114;52.314;8.910;2023-08-17T01:44:07;9.40;;;2.83;;
30307;SDS011;17114;52.314;8.910;2023-08-17T01:46:34;6.38;;;3.20;;
30307;SDS011;17114;52.314;8.910;2023-08-17T01:49:01;7.60;;;3.15;;
30307;SDS011;17114;52.314;8.910;2023-08-17T01:51:28;8.10;;;3.20;;
30307;SDS011;17114;52.314;8.910;2023-08-17T01:53:54;8.40;;;3.13;;
30307;SDS011;17114;52.314;8.910;2023-08-17T01:56:22;7.40;;;3.25;;
30307;SDS011;17114;52.314;8.910;2023-08-17T01:58:48;7.90;;;3.30;;
30307;SDS011;17114;52.314;8.910;2023-08-17T02:01:15;13.55;;;3.60;;
30307;SDS011;17114;52.314;8.910;2023-08-17T02:03:42;8.60;;;3.40;;
30307;SDS011;17114;52.314;8.910;2023-08-17T02:06:09;12.07;;;3.50;;
30307;SDS011;17114;52.314;8.910;2023-08-17T02:08:37;5.60;;;3.50;;
30307;SDS011;17114;52.314;8.910;2023-08-17T02:11:04;6.35;;;3.25;;
30307;SDS011;17114;52.314;8.910;2023-08-17T02:13:30;9.95;;;3.47;;
30307;SDS011;17114;52.314;8.910;2023-08-17T02:15:57;5.70;;;3.50;;
30307;SDS011;17114;52.314;8.910;2023-08-17T02:18:24;7.60;;;3.55;;
30307;SDS011;17114;52.314;8.910;2023-08-17T02:20:51;10.30;;;3.58;;
30307;SDS011;17114;52.314;8.910;2023-08-17T02:23:18;8.57;;;3.78;;
30307;SDS011;17114;52.314;8.910;2023-08-17T02:25:45;9.48;;;4.00;;
30307;SDS011;17114;52.314;8.910;2023-08-17T02:28:11;8.57;;;3.70;;
30307;SDS011;17114;52.314;8.910;2023-08-17T02:30:38;8.85;;;4.00;;
30307;SDS011;17114;52.314;8.910;2023-08-17T02:33:06;11.00;;;3.85;;
30307;SDS011;17114;52.314;8.910;2023-08-17T02:35:33;8.23;;;3.70;;
30307;SDS011;17114;52.314;8.910;2023-08-17T02:37:59;10.25;;;4.07;;
30307;SDS011;17114;52.314;8.910;2023-08-17T02:40:27;10.13;;;4.05;;
30307;SDS011;17114;52.314;8.910;2023-08-17T02:42:53;7.65;;;3.83;;
30307;SDS011;17114;52.314;8.910;2023-08-17T02:45:20;8.88;;;4.53;;
30307;SDS011;17114;52.314;8.910;2023-08-17T02:47:47;8.68;;;4.05;;
30307;SDS011;17114;52.314;8.910;2023-08-17T02:50:14;11.45;;;4.57;;
30307;SDS011;17114;52.314;8.910;2023-08-17T02:52:42;11.15;;;4.68;;
30307;SDS011;17114;52.314;8.910;2023-08-17T02:55:09;8.73;;;4.60;;
30307;SDS011;17114;52.314;8.910;2023-08-17T02:57:36;8.68;;;4.18;;
30307;SDS011;17114;52.314;8.910;2023-08-17T03:00:05;12.50;;;4.43;;
30307;SDS011;17114;52.314;8.910;2023-08-17T03:02:33;8.35;;;4.10;;
30307;SDS011;17114;52.314;8.910;2023-08-17T03:05:00;9.60;;;3.90;;
30307;SDS011;17114;52.314;8.910;2023-08-17T03:07:26;11.13;;;4.10;;
30307;SDS011;17114;52.314;8.910;2023-08-17T03:09:54;8.35;;;4.00;;
30307;SDS011;17114;52.314;8.910;2023-08-17T03:12:20;10.23;;;4.72;;
30307;SDS011;17114;52.314;8.910;2023-08-17T03:14:47;10.27;;;3.90;;
30307;SDS011;17114;52.314;8.910;2023-08-17T03:17:14;11.05;;;4.35;;
30307;SDS011;17114;52.314;8.910;2023-08-17T03:19:41;10.10;;;4.28;;
30307;SDS011;17114;52.314;8.910;2023-08-17T03:22:08;8.70;;;4.47;;
30307;SDS011;17114;52.314;8.910;2023-08-17T03:24:35;7.15;;;4.18;;
30307;SDS011;17114;52.314;8.910;2023-08-17T03:27:01;7.68;;;4.20;;
30307;SDS011;17114;52.314;8.910;2023-08-17T03:29:28;7.10;;;4.63;;
30307;SDS011;17114;52.314;8.910;2023-08-17T03:31:56;9.18;;;4.22;;
30307;SDS011;17114;52.314;8.910;2023-08-17T03:34:22;10.68;;;4.45;;
30307;SDS011;17114;52.314;8.910;2023-08-17T03:36:49;10.48;;;4.75;;
30307;SDS011;17114;52.314;8.910;2023-08-17T03:39:16;11.30;;;4.43;;
30307;SDS011;17114;52.314;8.910;2023-08-17T03:41:43;13.15;;;4.40;;
30307;SDS011;17114;52.314;8.910;2023-08-17T03:44:10;8.43;;;4.07;;
30307;SDS011;17114;52.314;8.910;2023-08-17T03:46:37;10.13;;;4.50;;
30307;SDS011;17114;52.314;8.910;2023-08-17T03:49:04;11.63;;;4.40;;
30307;SDS011;17114;52.314;8.910;2023-08-17T03:51:31;10.32;;;4.15;;
30307;SDS011;17114;52.314;8.910;2023-08-17T03:53:58;9.00;;;4.07;;
30307;SDS011;17114;52.314;8.910;2023-08-17T03:56:25;8.60;;;4.30;;
30307;SDS011;17114;52.314;8.910;2023-08-17T03:58:52;13.25;;;4.40;;
30307;SDS011;17114;52.314;8.910;2023-08-17T04:01:19;11.52;;;4.68;;
30307;SDS011;17114;52.314;8.910;2023-08-17T04:03:46;11.32;;;4.70;;
30307;SDS011;17114;52.314;8.910;2023-08-17T04:06:13;8.25;;;4.55;;
30307;SDS011;17114;52.314;8.910;2023-08-17T04:08:40;10.35;;;4.32;;
30307;SDS011;17114;52.314;8.910;2023-08-17T04:11:07;12.25;;;4.45;;
30307;SDS011;17114;52.314;8.910;2023-08-17T04:13:34;7.75;;;4.47;;
30307;SDS011;17114;52.314;8.910;2023-08-17T04:16:01;10.32;;;4.30;;
30307;SDS011;17114;52.314;8.910;2023-08-17T04:18:28;10.40;;;4.50;;
30307;SDS011;17114;52.314;8.910;2023-08-17T04:20:55;9.65;;;5.03;;
30307;SDS011;17114;52.314;8.910;2023-08-17T04:23:22;9.88;;;4.90;;
30307;SDS011;17114;52.314;8.910;2023-08-17T04:25:48;10.50;;;4.22;;
30307;SDS011;17114;52.314;8.910;2023-08-17T04:28:15;12.45;;;4.47;;
30307;SDS011;17114;52.314;8.910;2023-08-17T04:30:42;14.15;;;5.13;;
30307;SDS011;17114;52.314;8.910;2023-08-17T04:33:09;6.88;;;4.18;;
30307;SDS011;17114;52.314;8.910;2023-08-17T04:35:36;7.70;;;4.53;;
30307;SDS011;17114;52.314;8.910;2023-08-17T04:38:03;9.32;;;4.40;;
30307;SDS011;17114;52.314;8.910;2023-08-17T04:40:30;13.65;;;4.85;;
30307;SDS011;17114;52.314;8.910;2023-08-17T04:43:01;10.02;;;4.80;;
30307;SDS011;17114;52.314;8.910;2023-08-17T04:45:28;8.15;;;4.63;;
30307;SDS011;17114;52.314;8.910;2023-08-17T04:47:55;9.10;;;4.20;;
30307;SDS011;17114;52.314;8.910;2023-08-17T04:50:21;10.90;;;4.78;;
30307;SDS011;17114;52.314;8.910;2023-08-17T04:52:48;8.35;;;4.68;;
30307;SDS011;17114;52.314;8.910;2023-08-17T04:55:15;11.55;;;4.75;;
30307;SDS011;17114;52.314;8.910;2023-08-17T04:57:42;8.13;;;4.80;;
30307;SDS011;17114;52.314;8.910;2023-08-17T05:00:09;9.50;;;5.10;;
30307;SDS011;17114;52.314;8.910;2023-08-17T05:02:37;8.50;;;4.82;;
30307;SDS011;17114;52.314;8.910;2023-08-17T05:05:04;12.05;;;5.10;;
30307;SDS011;17114;52.314;8.910;2023-08-17T05:07:32;13.32;;;4.97;;
30307;SDS011;17114;52.314;8.910;2023-08-17T05:10:00;15.13;;;5.35;;
30307;SDS011;17114;52.314;8.910;2023-08-17T05:12:27;11.80;;;5.55;;
30307;SDS011;17114;52.314;8.910;2023-08-17T05:14:54;16.35;;;5.45;;
30307;SDS011;17114;52.314;8.910;2023-08-17T05:17:20;11.00;;;5.00;;
30307;SDS011;17114;52.314;8.910;2023-08-17T05:19:47;13.77;;;5.40;;
30307;SDS011;17114;52.314;8.910;2023-08-17T05:22:15;10.45;;;5.80;;
30307;SDS011;17114;52.314;8.910;2023-08-17T05:24:42;13.50;;;5.95;;
30307;SDS011;17114;52.314;8.910;2023-08-17T05:27:11;15.43;;;6.18;;
30307;SDS011;17114;52.314;8.910;2023-08-17T05:29:37;12.05;;;6.25;;
30307;SDS011;17114;52.314;8.910;2023-08-17T05:32:04;11.30;;;5.95;;
30307;SDS011;17114;52.314;8.910;2023-08-17T05:34:32;12.93;;;6.25;;
30307;SDS011;17114;52.314;8.910;2023-08-17T05:36:59;13.60;;;6.72;;
30307;SDS011;17114;52.314;8.910;2023-08-17T05:39:25;13.00;;;6.80;;
30307;SDS011;17114;52.314;8.910;2023-08-17T05:41:52;13.02;;;6.45;;
30307;SDS011;17114;52.314;8.910;2023-08-17T05:44:19;14.77;;;6.38;;
30307;SDS011;17114;52.314;8.910;2023-08-17T05:46:46;13.82;;;7.88;;
30307;SDS011;17114;52.314;8.910;2023-08-17T05:49:13;12.88;;;7.00;;
30307;SDS011;17114;52.314;8.910;2023-08-17T05:51:40;12.60;;;7.82;;
30307;SDS011;17114;52.314;8.910;2023-08-17T05:54:07;15.45;;;8.75;;
30307;SDS011;17114;52.314;8.910;2023-08-17T05:56:34;12.65;;;8.18;;
30307;SDS011;17114;52.314;8.910;2023-08-17T05:59:01;15.98;;;7.80;;
30307;SDS011;17114;52.314;8.910;2023-08-17T06:01:28;12.70;;;7.43;;
30307;SDS011;17114;52.314;8.910;2023-08-17T06:03:55;14.50;;;8.40;;
30307;SDS011;17114;52.314;8.910;2023-08-17T06:06:21;11.75;;;7.75;;
30307;SDS011;17114;52.314;8.910;2023-08-17T06:08:48;14.52;;;8.38;;
30307;SDS011;17114;52.314;8.910;2023-08-17T06:11:15;11.82;;;8.30;;
30307;SDS011;17114;52.314;8.910;2023-08-17T06:13:42;15.05;;;8.15;;
30307;SDS011;17114;52.314;8.910;2023-08-17T06:16:09;12.75;;;8.10;;
30307;SDS011;17114;52.314;8.910;2023-08-17T06:18:36;12.48;;;7.93;;
30307;SDS011;17114;52.314;8.910;2023-08-17T06:21:04;13.30;;;8.15;;
30307;SDS011;17114;52.314;8.910;2023-08-17T06:23:31;16.45;;;7.22;;
30307;SDS011;17114;52.314;8.910;2023-08-17T06:25:58;13.10;;;7.60;;
30307;SDS011;17114;52.314;8.910;2023-08-17T06:28:25;10.20;;;6.80;;
30307;SDS011;17114;52.314;8.910;2023-08-17T06:30:53;15.95;;;7.45;;
30307;SDS011;17114;52.314;8.910;2023-08-17T06:33:21;12.35;;;7.15;;
30307;SDS011;17114;52.314;8.910;2023-08-17T06:35:49;12.43;;;7.60;;
30307;SDS011;17114;52.314;8.910;2023-08-17T06:38:16;13.80;;;7.28;;
30307;SDS011;17114;52.314;8.910;2023-08-17T06:40:42;15.05;;;7.15;;
30307;SDS011;17114;52.314;8.910;2023-08-17T06:43:10;12.85;;;7.28;;
30307;SDS011;17114;52.314;8.910;2023-08-17T06:45:37;14.48;;;7.50;;
30307;SDS011;17114;52.314;8.910;2023-08-17T06:48:04;13.75;;;7.70;;
30307;SDS011;17114;52.314;8.910;2023-08-17T06:50:31;12.02;;;6.97;;
30307;SDS011;17114;52.314;8.910;2023-08-17T06:52:58;13.88;;;7.68;;
30307;SDS011;17114;52.314;8.910;2023-08-17T06:55:25;14.73;;;7.85;;
30307;SDS011;17114;52.314;8.910;2023-08-17T06:57:52;13.32;;;6.85;;
30307;SDS011;17114;52.314;8.910;2023-08-17T07:00:19;13.25;;;7.03;;
30307;SDS011;17114;52.314;8.910;2023-08-17T07:02:50;16.60;;;7.82;;
30307;SDS011;17114;52.314;8.910;2023-08-17T07:05:21;13.27;;;7.07;;
30307;SDS011;17114;52.314;8.910;2023-08-17T07:07:48;11.20;;;7.07;;
30307;SDS011;17114;52.314;8.910;2023-08-17T07:10:15;11.85;;;6.60;;
30307;SDS011;17114;52.314;8.910;2023-08-17T07:12:42;16.30;;;8.07;;
30307;SDS011;17114;52.314;8.910;2023-08-17T07:15:09;10.82;;;7.07;;
30307;SDS011;17114;52.314;8.910;2023-08-17T07:17:36;12.85;;;7.28;;
30307;SDS011;17114;52.314;8.910;2023-08-17T07:20:04;16.67;;;7.65;;
30307;SDS011;17114;52.314;8.910;2023-08-17T07:22:42;10.70;;;7.55;;
30307;SDS011;17114;52.314;8.910;2023-08-17T07:25:09;12.07;;;8.10;;
30307;SDS011;17114;52.314;8.910;2023-08-17T07:27:36;12.95;;;8.18;;
30307;SDS011;17114;52.314;8.910;2023-08-17T07:30:03;14.32;;;8.50;;
30307;SDS011;17114;52.314;8.910;2023-08-17T07:32:30;12.07;;;7.85;;
30307;SDS011;17114;52.314;8.910;2023-08-17T07:34:57;13.55;;;8.02;;
30307;SDS011;17114;52.314;8.910;2023-08-17T07:37:24;12.95;;;8.48;;
30307;SDS011;17114;52.314;8.910;2023-08-17T07:39:57;14.23;;;8.50;;
30307;SDS011;17114;52.314;8.910;2023-08-17T07:42:24;15.30;;;8.27;;
30307;SDS011;17114;52.314;8.910;2023-08-17T07:44:52;14.18;;;8.82;;
30307;SDS011;17114;52.314;8.910;2023-08-17T07:47:19;18.35;;;9.05;;
30307;SDS011;17114;52.314;8.910;2023-08-17T07:49:46;12.07;;;8.68;;
30307;SDS011;17114;52.314;8.910;2023-08-17T07:52:15;17.65;;;9.00;;
30307;SDS011;17114;52.314;8.910;2023-08-17T07:54:42;12.88;;;9.27;;
30307;SDS011;17114;52.314;8.910;2023-08-17T07:57:09;15.52;;;8.98;;
30307;SDS011;17114;52.314;8.910;2023-08-17T07:59:36;15.93;;;8.93;;
30307;SDS011;17114;52.314;8.910;2023-08-17T08:02:03;13.77;;;8.77;;
30307;SDS011;17114;52.314;8.910;2023-08-17T08:04:29;13.38;;;8.60;;
30307;SDS011;17114;52.314;8.910;2023-08-17T08:06:56;13.02;;;8.23;;
30307;SDS011;17114;52.314;8.910;2023-08-17T08:09:23;13.98;;;8.27;;
30307;SDS011;17114;52.314;8.910;2023-08-17T08:11:50;11.45;;;7.80;;
30307;SDS011;17114;52.314;8.910;2023-08-17T08:14:17;13.65;;;7.97;;
30307;SDS011;17114;52.314;8.910;2023-08-17T08:16:44;15.15;;;8.52;;
30307;SDS011;17114;52.314;8.910;2023-08-17T08:19:10;11.75;;;8.88;;
30307;SDS011;17114;52.314;8.910;2023-08-17T08:21:37;13.40;;;8.35;;
30307;SDS011;17114;52.314;8.910;2023-08-17T08:24:04;13.52;;;9.30;;
30307;SDS011;17114;52.314;8.910;2023-08-17T08:26:39;12.90;;;8.50;;
30307;SDS011;17114;52.314;8.910;2023-08-17T08:29:06;17.92;;;9.27;;
30307;SDS011;17114;52.314;8.910;2023-08-17T08:31:33;14.35;;;9.60;;
30307;SDS011;17114;52.314;8.910;2023-08-17T08:34:00;14.60;;;9.43;;
30307;SDS011;17114;52.314;8.910;2023-08-17T08:36:27;12.55;;;9.00;;
30307;SDS011;17114;52.314;8.910;2023-08-17T08:38:54;17.10;;;9.60;;
30307;SDS011;17114;52.314;8.910;2023-08-17T08:41:21;13.80;;;9.57;;
30307;SDS011;17114;52.314;8.910;2023-08-17T08:43:48;13.00;;;9.85;;
30307;SDS011;17114;52.314;8.910;2023-08-17T08:46:16;15.27;;;10.48;;
30307;SDS011;17114;52.314;8.910;2023-08-17T08:48:45;13.13;;;9.13;;
30307;SDS011;17114;52.314;8.910;2023-08-17T08:51:14;12.85;;;8.57;;
30307;SDS011;17114;52.314;8.910;2023-08-17T08:53:45;10.07;;;8.35;;
30307;SDS011;17114;52.314;8.910;2023-08-17T08:56:15;12.15;;;8.95;;
30307;SDS011;17114;52.314;8.910;2023-08-17T08:58:46;11.65;;;8.75;;
30307;SDS011;17114;52.314;8.910;2023-08-17T09:01:20;12.85;;;8.98;;
30307;SDS011;17114;52.314;8.910;2023-08-17T09:03:48;12.73;;;8.73;;
30307;SDS011;17114;52.314;8.910;2023-08-17T09:06:15;12.02;;;9.10;;
30307;SDS011;17114;52.314;8.910;2023-08-17T09:08:44;12.18;;;8.70;;
30307;SDS011;17114;52.314;8.910;2023-08-17T09:11:11;14.45;;;9.20;;
30307;SDS011;17114;52.314;8.910;2023-08-17T09:13:38;14.15;;;9.15;;
30307;SDS011;17114;52.314;8.910;2023-08-17T09:16:05;11.38;;;9.23;;
30307;SDS011;17114;52.314;8.910;2023-08-17T09:18:33;11.27;;;9.48;;
30307;SDS011;17114;52.314;8.910;2023-08-17T09:21:04;11.63;;;9.38;;
30307;SDS011;17114;52.314;8.910;2023-08-17T09:23:31;11.43;;;9.32;;
30307;SDS011;17114;52.314;8.910;2023-08-17T09:26:05;12.82;;;9.02;;
30307;SDS011;17114;52.314;8.910;2023-08-17T09:28:35;13.65;;;9.18;;
30307;SDS011;17114;52.314;8.910;2023-08-17T09:31:05;14.40;;;9.50;;
30307;SDS011;17114;52.314;8.910;2023-08-17T09:33:32;12.27;;;8.80;;
30307;SDS011;17114;52.314;8.910;2023-08-17T09:35:59;11.25;;;7.20;;
30307;SDS011;17114;52.314;8.910;2023-08-17T09:38:27;9.55;;;7.75;;
30307;SDS011;17114;52.314;8.910;2023-08-17T09:40:54;10.43;;;7.32;;
30307;SDS011;17114;52.314;8.910;2023-08-17T09:43:24;8.32;;;6.95;;
30307;SDS011;17114;52.314;8.910;2023-08-17T09:45:55;8.82;;;7.07;;
30307;SDS011;17114;52.314;8.910;2023-08-17T09:48:22;10.93;;;7.38;;
30307;SDS011;17114;52.314;8.910;2023-08-17T09:50:50;12.68;;;6.65;;
30307;SDS011;17114;52.314;8.910;2023-08-17T09:53:18;7.13;;;6.35;;
30307;SDS011;17114;52.314;8.910;2023-08-17T09:55:45;7.10;;;6.25;;
30307;SDS011;17114;52.314;8.910;2023-08-17T09:58:12;9.65;;;5.93;;
30307;SDS011;17114;52.314;8.910;2023-08-17T10:00:44;8.05;;;5.65;;
30307;SDS011;17114;52.314;8.910;2023-08-17T10:03:16;6.50;;;5.22;;
30307;SDS011;17114;52.314;8.910;2023-08-17T10:05:46;7.00;;;5.72;;
30307;SDS011;17114;52.314;8.910;2023-08-17T10:08:21;6.13;;;5.10;;
30307;SDS011;17114;52.314;8.910;2023-08-17T10:10:49;6.97;;;5.13;;
30307;SDS011;17114;52.314;8.910;2023-08-17T10:13:25;6.93;;;5.20;;
30307;SDS011;17114;52.314;8.910;2023-08-17T10:16:02;7.25;;;5.00;;
30307;SDS011;17114;52.314;8.910;2023-08-17T10:18:37;6.40;;;4.65;;
30307;SDS011;17114;52.314;8.910;2023-08-17T10:21:10;5.65;;;4.70;;
30307;SDS011;17114;52.314;8.910;2023-08-17T10:23:43;6.60;;;4.70;;
30307;SDS011;17114;52.314;8.910;2023-08-17T10:26:12;8.43;;;4.85;;
30307;SDS011;17114;52.314;8.910;2023-08-17T10:28:39;6.13;;;4.03;;
30307;SDS011;17114;52.314;8.910;2023-08-17T10:31:07;4.90;;;3.92;;
30307;SDS011;17114;52.314;8.910;2023-08-17T10:33:37;5.47;;;4.05;;
30307;SDS011;17114;52.314;8.910;2023-08-17T10:36:07;7.55;;;4.65;;
30307;SDS011;17114;52.314;8.910;2023-08-17T10:38:35;5.20;;;3.55;;
30307;SDS011;17114;52.314;8.910;2023-08-17T10:41:07;7.75;;;3.80;;
30307;SDS011;17114;52.314;8.910;2023-08-17T10:46:32;6.10;;;3.53;;
30307;SDS011;17114;52.314;8.910;2023-08-17T10:49:04;5.18;;;3.10;;
30307;SDS011;17114;52.314;8.910;2023-08-17T10:51:32;4.68;;;3.15;;
30307;SDS011;17114;52.314;8.910;2023-08-17T10:54:03;5.63;;;3.65;;
30307;SDS011;17114;52.314;8.910;2023-08-17T10:56:30;5.10;;;3.40;;
30307;SDS011;17114;52.314;8.910;2023-08-17T10:59:02;6.28;;;3.63;;
30307;SDS011;17114;52.314;8.910;2023-08-17T11:01:32;4.90;;;3.40;;
30307;SDS011;17114;52.314;8.910;2023-08-17T11:06:42;4.45;;;3.53;;
30307;SDS011;17114;52.314;8.910;2023-08-17T11:09:11;5.20;;;3.55;;
30307;SDS011;17114;52.314;8.910;2023-08-17T11:11:42;6.38;;;3.45;;
30307;SDS011;17114;52.314;8.910;2023-08-17T11:14:09;5.10;;;3.42;;
30307;SDS011;17114;52.314;8.910;2023-08-17T11:16:36;5.15;;;3.33;;
30307;SDS011;17114;52.314;8.910;2023-08-17T11:19:03;7.25;;;3.50;;
30307;SDS011;17114;52.314;8.910;2023-08-17T11:21:30;5.25;;;3.08;;
30307;SDS011;17114;52.314;8.910;2023-08-17T11:23:57;7.95;;;3.70;;
30307;SDS011;17114;52.314;8.910;2023-08-17T11:26:24;7.78;;;3.22;;
30307;SDS011;17114;52.314;8.910;2023-08-17T11:28:52;6.55;;;2.88;;
30307;SDS011;17114;52.314;8.910;2023-08-17T11:31:19;5.22;;;3.72;;
30307;SDS011;17114;52.314;8.910;2023-08-17T11:33:49;5.78;;;3.40;;
30307;SDS011;17114;52.314;8.910;2023-08-17T11:36:21;5.88;;;3.67;;
30307;SDS011;17114;52.314;8.910;2023-08-17T11:38:49;5.32;;;3.35;;
30307;SDS011;17114;52.314;8.910;2023-08-17T11:41:16;7.18;;;3.25;;
30307;SDS011;17114;52.314;8.910;2023-08-17T11:43:46;6.07;;;3.22;;
30307;SDS011;17114;52.314;8.910;2023-08-17T11:46:13;6.20;;;2.97;;
30307;SDS011;17114;52.314;8.910;2023-08-17T11:48:41;3.95;;;2.50;;
30307;SDS011;17114;52.314;8.910;2023-08-17T11:51:08;5.30;;;2.83;;
30307;SDS011;17114;52.314;8.910;2023-08-17T11:53:35;4.55;;;2.65;;
30307;SDS011;17114;52.314;8.910;2023-08-17T11:56:05;3.90;;;2.35;;
30307;SDS011;17114;52.314;8.910;2023-08-17T11:58:36;5.00;;;2.50;;
30307;SDS011;17114;52.314;8.910;2023-08-17T12:01:11;6.05;;;2.75;;
30307;SDS011;17114;52.314;8.910;2023-08-17T12:03:39;5.20;;;2.72;;
30307;SDS011;17114;52.314;8.910;2023-08-17T12:06:08;6.20;;;3.08;;
30307;SDS011;17114;52.314;8.910;2023-08-17T12:08:36;7.10;;;3.65;;
30307;SDS011;17114;52.314;8.910;2023-08-17T12:11:03;4.60;;;3.15;;
30307;SDS011;17114;52.314;8.910;2023-08-17T12:13:34;3.88;;;3.10;;
30307;SDS011;17114;52.314;8.910;2023-08-17T12:16:01;6.07;;;3.70;;
30307;SDS011;17114;52.314;8.910;2023-08-17T12:18:31;6.25;;;3.40;;
30307;SDS011;17114;52.314;8.910;2023-08-17T12:20:59;5.35;;;3.30;;
30307;SDS011;17114;52.314;8.910;2023-08-17T12:23:25;8.07;;;4.70;;
30307;SDS011;17114;52.314;8.910;2023-08-17T12:25:53;9.85;;;4.47;;
30307;SDS011;17114;52.314;8.910;2023-08-17T12:28:23;9.88;;;4.25;;
30307;SDS011;17114;52.314;8.910;2023-08-17T12:30:57;8.93;;;4.50;;
30307;SDS011;17114;52.314;8.910;2023-08-17T12:33:28;12.23;;;4.93;;
30307;SDS011;17114;52.314;8.910;2023-08-17T12:35:55;10.25;;;4.40;;
30307;SDS011;17114;52.314;8.910;2023-08-17T12:38:23;9.27;;;4.63;;
30307;SDS011;17114;52.314;8.910;2023-08-17T12:40:51;8.45;;;4.57;;
30307;SDS011;17114;52.314;8.910;2023-08-17T12:43:19;5.38;;;3.45;;
30307;SDS011;17114;52.314;8.910;2023-08-17T12:45:46;7.45;;;4.38;;
30307;SDS011;17114;52.314;8.910;2023-08-17T12:48:13;5.93;;;4.30;;
30307;SDS011;17114;52.314;8.910;2023-08-17T12:50:40;7.95;;;4.43;;
30307;SDS011;17114;52.314;8.910;2023-08-17T12:53:10;8.65;;;4.22;;
30307;SDS011;17114;52.314;8.910;2023-08-17T12:55:37;15.35;;;4.78;;
30307;SDS011;17114;52.314;8.910;2023-08-17T12:58:04;6.80;;;4.20;;
30307;SDS011;17114;52.314;8.910;2023-08-17T13:00:33;6.60;;;3.90;;
30307;SDS011;17114;52.314;8.910;2023-08-17T13:03:00;9.45;;;4.40;;
30307;SDS011;17114;52.314;8.910;2023-08-17T13:05:27;8.13;;;4.10;;
30307;SDS011;17114;52.314;8.910;2023-08-17T13:07:57;7.57;;;4.20;;
30307;SDS011;17114;52.314;8.910;2023-08-17T13:10:24;9.25;;;5.03;;
30307;SDS011;17114;52.314;8.910;2023-08-17T13:12:51;8.52;;;4.22;;
30307;SDS011;17114;52.314;8.910;2023-08-17T13:15:21;11.10;;;4.80;;
30307;SDS011;17114;52.314;8.910;2023-08-17T13:17:48;8.23;;;4.05;;
30307;SDS011;17114;52.314;8.910;2023-08-17T13:20:15;10.90;;;4.63;;
30307;SDS011;17114;52.314;8.910;2023-08-17T13:22:42;8.80;;;4.38;;
30307;SDS011;17114;52.314;8.910;2023-08-17T13:25:09;11.75;;;4.93;;
30307;SDS011;17114;52.314;8.910;2023-08-17T13:27:36;9.90;;;4.85;;
30307;SDS011;17114;52.314;8.910;2023-08-17T13:30:03;8.68;;;4.47;;
30307;SDS011;17114;52.314;8.910;2023-08-17T13:32:30;8.15;;;4.78;;
30307;SDS011;17114;52.314;8.910;2023-08-17T13:34:57;9.32;;;4.35;;
30307;SDS011;17114;52.314;8.910;2023-08-17T13:37:24;10.70;;;4.88;;
30307;SDS011;17114;52.314;8.910;2023-08-17T13:39:51;9.18;;;4.30;;
30307;SDS011;17114;52.314;8.910;2023-08-17T13:42:17;7.30;;;3.80;;
30307;SDS011;17114;52.314;8.910;2023-08-17T13:44:44;7.85;;;3.97;;
30307;SDS011;17114;52.314;8.910;2023-08-17T13:47:12;6.95;;;4.22;;
30307;SDS011;17114;52.314;8.910;2023-08-17T13:49:41;5.97;;;3.75;;
30307;SDS011;17114;52.314;8.910;2023-08-17T13:52:08;6.95;;;4.00;;
30307;SDS011;17114;52.314;8.910;2023-08-17T13:54:35;8.95;;;4.80;;
30307;SDS011;17114;52.314;8.910;2023-08-17T13:57:02;7.25;;;4.70;;
30307;SDS011;17114;52.314;8.910;2023-08-17T13:59:29;8.18;;;4.70;;
30307;SDS011;17114;52.314;8.910;2023-08-17T14:01:56;9.07;;;4.97;;
30307;SDS011;17114;52.314;8.910;2023-08-17T14:04:23;7.72;;;4.65;;
30307;SDS011;17114;52.314;8.910;2023-08-17T14:06:50;9.40;;;4.65;;
30307;SDS011;17114;52.314;8.910;2023-08-17T14:09:18;8.85;;;4.32;;
30307;SDS011;17114;52.314;8.910;2023-08-17T14:11:45;8.95;;;4.55;;
30307;SDS011;17114;52.314;8.910;2023-08-17T14:14:12;8.43;;;4.00;;
30307;SDS011;17114;52.314;8.910;2023-08-17T14:16:39;10.80;;;4.78;;
30307;SDS011;17114;52.314;8.910;2023-08-17T14:19:06;5.72;;;4.07;;
30307;SDS011;17114;52.314;8.910;2023-08-17T14:21:33;9.07;;;4.93;;
30307;SDS011;17114;52.314;8.910;2023-08-17T14:23:59;10.15;;;5.57;;
30307;SDS011;17114;52.314;8.910;2023-08-17T14:26:26;9.85;;;5.50;;
30307;SDS011;17114;52.314;8.910;2023-08-17T14:28:55;9.32;;;5.38;;
30307;SDS011;17114;52.314;8.910;2023-08-17T14:31:22;9.15;;;5.53;;
30307;SDS011;17114;52.314;8.910;2023-08-17T14:33:49;8.77;;;5.32;;
30307;SDS011;17114;52.314;8.910;2023-08-17T14:36:15;10.55;;;5.45;;
30307;SDS011;17114;52.314;8.910;2023-08-17T14:38:46;8.98;;;4.47;;
30307;SDS011;17114;52.314;8.910;2023-08-17T14:41:13;7.97;;;4.20;;
30307;SDS011;17114;52.314;8.910;2023-08-17T14:43:40;7.03;;;3.95;;
30307;SDS011;17114;52.314;8.910;2023-08-17T14:46:07;9.10;;;4.90;;
30307;SDS011;17114;52.314;8.910;2023-08-17T14:48:39;9.52;;;4.47;;
30307;SDS011;17114;52.314;8.910;2023-08-17T14:51:08;7.90;;;4.32;;
30307;SDS011;17114;52.314;8.910;2023-08-17T14:53:35;9.38;;;4.45;;